createdAt,value
2023-03-22T00:00:24.767Z,13.24
2023-03-22T00:01:30.942Z,13.23
2023-03-22T00:02:56.124Z,13.21
2023-03-22T00:04:17.739Z,13.21
2023-03-22T00:05:40.906Z,13.21
2023-03-22T00:07:03.402Z,13.20
2023-03-22T00:08:26.017Z,13.19
2023-03-22T00:09:48.567Z,13.17
2023-03-22T00:11:13.061Z,13.16
2023-03-22T00:12:34.580Z,13.13
2023-03-22T00:13:58.671Z,13.11
2023-03-22T00:15:20.275Z,13.10
2023-03-22T00:16:42.738Z,13.08
2023-03-22T00:18:06.946Z,13.06
2023-03-22T00:19:30.042Z,13.05
2023-03-22T00:20:53.148Z,13.03
2023-03-22T00:22:16.118Z,13.00
2023-03-22T00:23:37.669Z,12.97
2023-03-22T00:25:00.268Z,12.94
2023-03-22T00:26:22.956Z,12.93
2023-03-22T00:27:44.661Z,12.91
2023-03-22T00:29:07.226Z,12.89
2023-03-22T00:30:28.820Z,12.87
2023-03-22T00:31:51.934Z,12.86
2023-03-22T00:33:14.846Z,12.82
2023-03-22T00:34:38.127Z,12.81
2023-03-22T00:36:03.381Z,12.78
2023-03-22T00:37:27.939Z,12.75
2023-03-22T00:38:50.510Z,12.73
2023-03-22T00:40:13.941Z,12.71
2023-03-22T00:41:36.552Z,12.69
2023-03-22T00:42:58.077Z,12.67
2023-03-22T00:44:20.690Z,12.66
2023-03-22T00:45:43.104Z,12.66
2023-03-22T00:47:05.752Z,12.66
2023-03-22T00:48:28.881Z,12.66
2023-03-22T00:49:51.425Z,12.64
2023-03-22T00:51:15.403Z,12.62
2023-03-22T00:52:36.924Z,12.61
2023-03-22T00:53:59.426Z,12.61
2023-03-22T00:55:20.989Z,12.62
2023-03-22T00:56:45.360Z,12.62
2023-03-22T00:58:06.922Z,12.62
2023-03-22T00:59:29.415Z,12.62
2023-03-22T01:00:51.525Z,12.63
2023-03-22T01:02:14.677Z,12.63
2023-03-22T01:03:38.684Z,12.63
2023-03-22T01:05:01.238Z,12.64
2023-03-22T01:06:22.906Z,12.66
2023-03-22T01:07:45.705Z,12.68
2023-03-22T01:09:08.306Z,12.70
2023-03-22T01:10:31.019Z,12.72
2023-03-22T01:11:53.500Z,12.71
2023-03-22T01:13:17.895Z,12.72
2023-03-22T01:14:40.846Z,12.71
2023-03-22T01:16:03.356Z,12.70
2023-03-22T01:17:24.910Z,12.67
2023-03-22T01:18:48.752Z,12.65
2023-03-22T01:20:11.621Z,12.61
2023-03-22T01:21:34.115Z,12.59
2023-03-22T01:22:56.562Z,12.55
2023-03-22T01:24:18.067Z,12.50
2023-03-22T01:25:40.807Z,12.47
2023-03-22T01:27:02.384Z,12.45
2023-03-22T01:28:27.033Z,12.41
2023-03-22T01:29:49.839Z,12.39
2023-03-22T01:31:11.561Z,12.37
2023-03-22T01:32:34.293Z,12.35
2023-03-22T01:33:58.130Z,12.32
2023-03-22T01:35:21.069Z,12.31
2023-03-22T01:36:44.835Z,12.29
2023-03-22T01:38:08.126Z,12.28
2023-03-22T01:39:09.711Z,12.26
2023-03-22T01:40:13.378Z,12.25
2023-03-22T01:41:20.345Z,12.24
2023-03-22T01:42:23.524Z,12.24
2023-03-22T01:43:26.570Z,12.23
2023-03-22T01:44:31.429Z,12.22
2023-03-22T01:45:40.224Z,12.21
2023-03-22T01:46:44.699Z,12.20
2023-03-22T01:47:51.649Z,12.19
2023-03-22T01:48:54.436Z,12.18
2023-03-22T01:49:57.303Z,12.17
2023-03-22T01:51:05.388Z,12.17
2023-03-22T01:52:11.088Z,12.15
2023-03-22T01:53:18.921Z,12.15
2023-03-22T01:54:26.576Z,12.13
2023-03-22T01:55:28.306Z,12.11
2023-03-22T01:56:35.566Z,12.11
2023-03-22T01:57:38.349Z,12.11
2023-03-22T01:58:41.968Z,12.09
2023-03-22T01:59:44.900Z,12.08
2023-03-22T02:00:50.652Z,12.08
2023-03-22T02:01:52.156Z,12.07
2023-03-22T02:02:54.926Z,12.06
2023-03-22T02:04:03.434Z,12.03
2023-03-22T02:05:07.068Z,12.04
2023-03-22T02:06:09.793Z,12.02
2023-03-22T02:07:15.391Z,12.02
2023-03-22T02:08:18.117Z,12.02
2023-03-22T02:09:22.133Z,12.01
2023-03-22T02:10:27.962Z,12.00
2023-03-22T02:11:41.454Z,11.99
2023-03-22T02:12:55.970Z,12.00
2023-03-22T02:14:27.292Z,11.99
2023-03-22T02:15:34.672Z,11.99
2023-03-22T02:16:48.457Z,11.99
2023-03-22T02:18:06.211Z,12.00
2023-03-22T02:19:33.491Z,12.01
2023-03-22T02:20:55.206Z,12.04
2023-03-22T02:22:21.712Z,12.06
2023-03-22T02:23:55.283Z,12.08
2023-03-22T02:25:30.227Z,12.09
2023-03-22T02:27:18.406Z,12.10
2023-03-22T02:28:37.802Z,12.08
2023-03-22T02:29:45.875Z,12.08
2023-03-22T02:31:02.338Z,12.07
2023-03-22T02:32:37.403Z,12.06
2023-03-22T02:34:01.387Z,12.03
2023-03-22T02:35:34.267Z,12.00
2023-03-22T02:37:01.671Z,11.96
2023-03-22T02:38:57.629Z,11.95
2023-03-22T02:40:09.840Z,11.92
2023-03-22T02:41:23.680Z,11.89
2023-03-22T02:42:37.633Z,11.88
2023-03-22T02:43:48.024Z,11.86
2023-03-22T02:44:59.762Z,11.84
2023-03-22T02:46:08.105Z,11.83
2023-03-22T02:47:21.509Z,11.83
2023-03-22T02:48:27.967Z,11.82
2023-03-22T02:49:37.257Z,11.79
2023-03-22T02:50:43.256Z,11.79
2023-03-22T02:51:49.822Z,11.79
2023-03-22T02:52:56.085Z,11.77
2023-03-22T02:54:15.350Z,11.77
2023-03-22T02:55:24.146Z,11.75
2023-03-22T02:56:32.264Z,11.75
2023-03-22T02:57:40.899Z,11.74
2023-03-22T02:58:47.043Z,11.75
2023-03-22T02:59:51.550Z,11.73
2023-03-22T03:00:59.388Z,11.73
2023-03-22T03:02:05.467Z,11.73
2023-03-22T03:03:11.759Z,11.72
2023-03-22T03:04:20.371Z,11.70
2023-03-22T03:05:25.116Z,11.70
2023-03-22T03:06:35.598Z,11.70
2023-03-22T03:07:38.602Z,11.70
2023-03-22T03:08:42.035Z,11.69
2023-03-22T03:09:51.490Z,11.69
2023-03-22T03:10:55.911Z,11.68
2023-03-22T03:11:57.451Z,11.65
2023-03-22T03:13:13.462Z,11.66
2023-03-22T03:14:23.665Z,11.66
2023-03-22T03:15:26.898Z,11.65
2023-03-22T03:16:34.792Z,11.65
2023-03-22T03:17:50.557Z,11.64
2023-03-22T03:19:00.059Z,11.62
2023-03-22T03:20:29.911Z,11.63
2023-03-22T03:21:42.427Z,11.62
2023-03-22T03:22:57.365Z,11.60
2023-03-22T03:24:11.286Z,11.59
2023-03-22T03:25:25.017Z,11.59
2023-03-22T03:26:40.444Z,11.58
2023-03-22T03:27:50.877Z,11.56
2023-03-22T03:28:59.360Z,11.56
2023-03-22T03:30:10.029Z,11.55
2023-03-22T03:31:27.022Z,11.53
2023-03-22T03:32:35.163Z,11.52
2023-03-22T03:33:52.869Z,11.52
2023-03-22T03:34:58.767Z,11.51
2023-03-22T03:36:04.385Z,11.50
2023-03-22T03:37:21.820Z,11.50
2023-03-22T03:38:27.648Z,11.47
2023-03-22T03:39:34.349Z,11.46
2023-03-22T03:40:47.712Z,11.46
2023-03-22T03:41:56.055Z,11.45
2023-03-22T03:43:02.500Z,11.45
2023-03-22T03:44:06.050Z,11.44
2023-03-22T03:45:09.837Z,11.44
2023-03-22T03:46:13.366Z,11.44
2023-03-22T03:47:16.287Z,11.44
2023-03-22T03:48:22.169Z,11.43
2023-03-22T03:49:24.333Z,11.43
2023-03-22T03:50:27.981Z,11.43
2023-03-22T03:51:29.577Z,11.41
2023-03-22T03:52:32.080Z,11.43
2023-03-22T03:53:33.959Z,11.43
2023-03-22T03:54:36.521Z,11.42
2023-03-22T03:55:38.102Z,11.42
2023-03-22T03:56:40.599Z,11.43
2023-03-22T03:57:53.510Z,11.42
2023-03-22T03:58:56.477Z,11.41
2023-03-22T03:59:58.037Z,11.41
2023-03-22T04:01:00.637Z,11.41
2023-03-22T04:02:03.283Z,11.39
2023-03-22T04:03:06.223Z,11.38
2023-03-22T04:04:09.473Z,11.38
2023-03-22T04:05:11.928Z,11.37
2023-03-22T04:06:15.778Z,11.37
2023-03-22T04:07:17.562Z,11.38
2023-03-22T04:08:20.087Z,11.36
2023-03-22T04:09:21.647Z,11.35
2023-03-22T04:10:24.221Z,11.35
2023-03-22T04:11:26.578Z,11.36
2023-03-22T04:12:29.085Z,11.35
2023-03-22T04:13:32.068Z,11.36
2023-03-22T04:14:34.539Z,11.36
2023-03-22T04:15:36.075Z,11.37
2023-03-22T04:16:38.782Z,11.37
2023-03-22T04:17:43.186Z,11.37
2023-03-22T04:18:53.145Z,11.35
2023-03-22T04:19:58.390Z,11.35
2023-03-22T04:21:00.905Z,11.35
2023-03-22T04:22:02.590Z,11.35
2023-03-22T04:23:05.146Z,11.34
2023-03-22T04:24:07.533Z,11.33
2023-03-22T04:25:13.370Z,11.33
2023-03-22T04:26:15.258Z,11.32
2023-03-22T04:27:18.141Z,11.31
2023-03-22T04:28:20.220Z,11.31
2023-03-22T04:29:24.415Z,11.31
2023-03-22T04:30:27.330Z,11.29
2023-03-22T04:31:29.332Z,11.29
2023-03-22T04:32:31.887Z,11.27
2023-03-22T04:33:39.153Z,11.27
2023-03-22T04:34:41.650Z,11.27
2023-03-22T04:35:56.649Z,11.28
2023-03-22T04:37:02.256Z,11.28
2023-03-22T04:38:04.786Z,11.28
2023-03-22T04:39:08.651Z,11.29
2023-03-22T04:40:16.494Z,11.30
2023-03-22T04:41:18.840Z,11.31
2023-03-22T04:42:21.959Z,11.29
2023-03-22T04:43:34.838Z,11.30
2023-03-22T04:44:38.817Z,11.29
2023-03-22T04:45:41.948Z,11.29
2023-03-22T04:46:44.766Z,11.29
2023-03-22T04:47:56.379Z,11.29
2023-03-22T04:48:59.613Z,11.29
2023-03-22T04:50:01.159Z,11.31
2023-03-22T04:51:04.014Z,11.33
2023-03-22T04:52:05.581Z,11.34
2023-03-22T04:53:09.691Z,11.36
2023-03-22T04:54:11.367Z,11.37
2023-03-22T04:55:14.195Z,11.39
2023-03-22T04:56:15.697Z,11.42
2023-03-22T04:57:18.200Z,11.44
2023-03-22T04:58:22.017Z,11.46
2023-03-22T04:59:24.544Z,11.47
2023-03-22T05:00:30.101Z,11.47
2023-03-22T05:01:34.702Z,11.48
2023-03-22T05:02:41.092Z,11.48
2023-03-22T05:03:45.427Z,11.50
2023-03-22T05:04:53.005Z,11.50
2023-03-22T05:05:57.182Z,11.50
2023-03-22T05:07:08.745Z,11.48
2023-03-22T05:08:14.243Z,11.49
2023-03-22T05:09:16.049Z,11.50
2023-03-22T05:10:18.639Z,11.52
2023-03-22T05:11:20.316Z,11.52
2023-03-22T05:12:32.991Z,11.55
2023-03-22T05:13:44.857Z,11.56
2023-03-22T05:14:57.513Z,11.59
2023-03-22T05:16:00.668Z,11.60
2023-03-22T05:17:09.651Z,11.59
2023-03-22T05:18:24.539Z,11.60
2023-03-22T05:19:27.519Z,11.61
2023-03-22T05:20:32.658Z,11.61
2023-03-22T05:21:36.723Z,11.62
2023-03-22T05:22:40.300Z,11.64
2023-03-22T05:23:43.319Z,11.66
2023-03-22T05:24:45.454Z,11.66
2023-03-22T05:25:58.634Z,11.68
2023-03-22T05:27:00.976Z,11.69
2023-03-22T05:28:03.555Z,11.72
2023-03-22T05:29:05.528Z,11.74
2023-03-22T05:30:09.833Z,11.75
2023-03-22T05:31:14.510Z,11.78
2023-03-22T05:32:18.259Z,11.80
2023-03-22T05:33:21.723Z,11.82
2023-03-22T05:34:24.607Z,11.84
2023-03-22T05:35:26.613Z,11.86
2023-03-22T05:36:29.685Z,11.87
2023-03-22T05:37:31.916Z,11.88
2023-03-22T05:38:44.813Z,11.91
2023-03-22T05:39:46.385Z,11.90
2023-03-22T05:40:49.236Z,11.93
2023-03-22T05:41:50.844Z,11.93
2023-03-22T05:42:54.092Z,11.92
2023-03-22T05:43:55.772Z,11.91
2023-03-22T05:44:58.241Z,11.92
2023-03-22T05:46:01.088Z,11.91
2023-03-22T05:47:14.972Z,11.92
2023-03-22T05:48:16.758Z,11.94
2023-03-22T05:49:19.428Z,11.95
2023-03-22T05:50:23.139Z,11.96
2023-03-22T05:51:25.809Z,11.97
2023-03-22T05:52:27.529Z,11.99
2023-03-22T05:53:31.782Z,12.01
2023-03-22T05:54:33.473Z,12.04
2023-03-22T05:55:36.005Z,12.06
2023-03-22T05:56:39.707Z,12.09
2023-03-22T05:57:42.386Z,12.10
2023-03-22T05:58:44.805Z,12.11
2023-03-22T05:59:47.334Z,12.13
2023-03-22T06:00:49.865Z,12.16
2023-03-22T06:01:52.690Z,12.16
2023-03-22T06:02:56.379Z,12.18
2023-03-22T06:03:58.923Z,12.18
2023-03-22T06:05:00.506Z,12.19
2023-03-22T06:06:06.610Z,12.20
2023-03-22T06:07:08.361Z,12.21
2023-03-22T06:08:10.906Z,12.22
2023-03-22T06:09:17.623Z,12.23
2023-03-22T06:10:20.683Z,12.24
2023-03-22T06:11:22.763Z,12.26
2023-03-22T06:12:27.238Z,12.27
2023-03-22T06:13:30.374Z,12.26
2023-03-22T06:14:32.961Z,12.27
2023-03-22T06:15:34.574Z,12.27
2023-03-22T06:16:37.098Z,12.27
2023-03-22T06:17:38.778Z,12.26
2023-03-22T06:18:52.226Z,12.25
2023-03-22T06:20:09.187Z,12.22
2023-03-22T06:21:11.824Z,12.21
2023-03-22T06:22:13.905Z,12.18
2023-03-22T06:23:17.749Z,12.16
2023-03-22T06:24:19.607Z,12.15
2023-03-22T06:25:22.361Z,12.13
2023-03-22T06:26:23.947Z,12.13
2023-03-22T06:27:26.578Z,12.13
2023-03-22T06:28:29.800Z,12.14
2023-03-22T06:29:32.781Z,12.13
2023-03-22T06:30:34.408Z,12.16
2023-03-22T06:31:37.034Z,12.16
2023-03-22T06:32:38.800Z,12.18
2023-03-22T06:33:41.499Z,12.20
2023-03-22T06:34:51.196Z,12.20
2023-03-22T06:35:53.942Z,12.22
2023-03-22T06:36:56.167Z,12.24
2023-03-22T06:37:58.815Z,12.27
2023-03-22T06:39:00.971Z,12.28
2023-03-22T06:40:03.766Z,12.30
2023-03-22T06:41:07.414Z,12.33
2023-03-22T06:42:09.436Z,12.34
2023-03-22T06:43:11.934Z,12.35
2023-03-22T06:44:14.543Z,12.37
2023-03-22T06:45:17.606Z,12.39
2023-03-22T06:46:19.204Z,12.40
2023-03-22T06:47:22.127Z,12.41
2023-03-22T06:48:23.820Z,12.42
2023-03-22T06:49:26.455Z,12.43
2023-03-22T06:50:44.057Z,12.44
2023-03-22T06:51:45.968Z,12.46
2023-03-22T06:52:48.466Z,12.48
2023-03-22T06:53:50.135Z,12.50
2023-03-22T06:54:52.705Z,12.52
2023-03-22T06:56:02.142Z,12.54
2023-03-22T06:57:05.397Z,12.53
2023-03-22T06:58:07.798Z,12.56
2023-03-22T06:59:10.439Z,12.57
2023-03-22T07:00:13.608Z,12.58
2023-03-22T07:01:19.927Z,12.59
2023-03-22T07:02:21.550Z,12.61
2023-03-22T07:03:24.203Z,12.62
2023-03-22T07:04:27.688Z,12.64
2023-03-22T07:05:32.252Z,12.65
2023-03-22T07:06:35.135Z,12.66
2023-03-22T07:07:37.647Z,12.69
2023-03-22T07:08:44.450Z,12.71
2023-03-22T07:09:56.967Z,12.74
2023-03-22T07:11:01.022Z,12.76
2023-03-22T07:12:06.951Z,12.80
2023-03-22T07:13:08.929Z,12.83
2023-03-22T07:14:11.565Z,12.86
2023-03-22T07:15:13.149Z,12.91
2023-03-22T07:16:18.109Z,12.95
2023-03-22T07:17:21.007Z,12.98
2023-03-22T07:18:23.816Z,13.01
2023-03-22T07:19:25.997Z,13.06
2023-03-22T07:20:41.303Z,13.11
2023-03-22T07:21:44.359Z,13.15
2023-03-22T07:22:46.916Z,13.17
2023-03-22T07:23:48.449Z,13.22
2023-03-22T07:24:57.215Z,13.25
2023-03-22T07:26:00.967Z,13.29
2023-03-22T07:27:03.883Z,13.33
2023-03-22T07:28:06.884Z,13.36
2023-03-22T07:29:09.855Z,13.42
2023-03-22T07:30:12.265Z,13.46
2023-03-22T07:31:16.053Z,13.50
2023-03-22T07:32:18.684Z,13.53
2023-03-22T07:33:20.269Z,13.56
2023-03-22T07:34:23.188Z,13.57
2023-03-22T07:35:26.862Z,13.61
2023-03-22T07:36:29.722Z,13.64
2023-03-22T07:37:33.639Z,13.67
2023-03-22T07:38:35.604Z,13.68
2023-03-22T07:39:38.349Z,13.71
2023-03-22T07:40:40.220Z,13.74
2023-03-22T07:41:42.838Z,13.77
2023-03-22T07:42:44.467Z,13.77
2023-03-22T07:44:07.881Z,13.78
2023-03-22T07:45:26.176Z,13.77
2023-03-22T07:46:42.611Z,13.75
2023-03-22T07:47:44.862Z,13.73
2023-03-22T07:48:47.439Z,13.73
2023-03-22T07:49:50.109Z,13.73
2023-03-22T07:50:55.767Z,13.73
2023-03-22T07:51:58.642Z,13.73
2023-03-22T07:53:01.663Z,13.70
2023-03-22T07:54:07.067Z,13.69
2023-03-22T07:55:10.905Z,13.69
2023-03-22T07:56:14.892Z,13.68
2023-03-22T07:57:17.486Z,13.68
2023-03-22T07:58:19.199Z,13.67
2023-03-22T07:59:22.564Z,13.69
2023-03-22T08:00:25.622Z,13.69
2023-03-22T08:01:30.535Z,13.69
2023-03-22T08:02:45.940Z,13.70
2023-03-22T08:03:50.752Z,13.70
2023-03-22T08:04:56.160Z,13.71
2023-03-22T08:06:03.004Z,13.73
2023-03-22T08:07:05.748Z,13.72
2023-03-22T08:08:19.615Z,13.72
2023-03-22T08:09:21.364Z,13.72
2023-03-22T08:10:23.970Z,13.71
2023-03-22T08:11:26.590Z,13.73
2023-03-22T08:12:28.140Z,13.72
2023-03-22T08:13:30.936Z,13.73
2023-03-22T08:14:36.539Z,13.74
2023-03-22T08:15:40.026Z,13.76
2023-03-22T08:16:44.001Z,13.76
2023-03-22T08:17:46.580Z,13.78
2023-03-22T08:18:49.130Z,13.79
2023-03-22T08:19:51.528Z,13.80
2023-03-22T08:20:54.758Z,13.81
2023-03-22T08:21:56.335Z,13.83
2023-03-22T08:22:58.873Z,13.85
2023-03-22T08:24:02.984Z,13.85
2023-03-22T08:25:05.386Z,13.87
2023-03-22T08:26:08.009Z,13.89
2023-03-22T08:27:20.831Z,13.90
2023-03-22T08:28:22.781Z,13.90
2023-03-22T08:29:25.565Z,13.90
2023-03-22T08:30:38.242Z,13.90
2023-03-22T08:31:51.754Z,13.90
2023-03-22T08:32:53.331Z,13.91
2023-03-22T08:33:56.555Z,13.93
2023-03-22T08:34:58.207Z,13.94
2023-03-22T08:36:07.949Z,13.99
2023-03-22T08:37:11.961Z,14.02
2023-03-22T08:38:14.666Z,14.03
2023-03-22T08:39:18.665Z,14.05
2023-03-22T08:40:20.338Z,14.06
2023-03-22T08:41:23.551Z,14.06
2023-03-22T08:42:25.378Z,14.05
2023-03-22T08:43:28.156Z,14.07
2023-03-22T08:44:30.295Z,14.09
2023-03-22T08:45:32.886Z,14.12
2023-03-22T08:46:35.765Z,14.15
2023-03-22T08:47:38.343Z,14.17
2023-03-22T08:48:51.363Z,14.20
2023-03-22T08:49:53.181Z,14.23
2023-03-22T08:50:55.982Z,14.27
2023-03-22T08:51:57.612Z,14.31
2023-03-22T08:53:00.871Z,14.35
2023-03-22T08:54:08.025Z,14.41
2023-03-22T08:55:11.237Z,14.46
2023-03-22T08:56:14.866Z,14.51
2023-03-22T08:57:16.906Z,14.54
2023-03-22T08:58:20.549Z,14.60
2023-03-22T08:59:23.822Z,14.63
2023-03-22T09:00:27.607Z,14.66
2023-03-22T09:01:35.233Z,14.71
2023-03-22T09:02:37.437Z,14.74
2023-03-22T09:03:40.390Z,14.75
2023-03-22T09:04:42.266Z,14.77
2023-03-22T09:05:45.165Z,14.80
2023-03-22T09:06:46.980Z,14.84
2023-03-22T09:08:06.098Z,14.86
2023-03-22T09:09:09.019Z,14.90
2023-03-22T09:10:13.061Z,14.94
2023-03-22T09:11:24.521Z,14.94
2023-03-22T09:12:26.228Z,14.96
2023-03-22T09:13:30.534Z,14.96
2023-03-22T09:14:32.092Z,14.97
2023-03-22T09:15:34.631Z,14.99
2023-03-22T09:16:41.808Z,14.99
2023-03-22T09:17:44.676Z,14.97
2023-03-22T09:18:46.481Z,14.94
2023-03-22T09:20:02.722Z,14.92
2023-03-22T09:21:13.099Z,14.93
2023-03-22T09:22:14.771Z,14.96
2023-03-22T09:23:17.791Z,15.01
2023-03-22T09:24:20.379Z,15.07
2023-03-22T09:25:24.287Z,15.12
2023-03-22T09:26:27.062Z,15.17
2023-03-22T09:27:34.208Z,15.18
2023-03-22T09:28:36.563Z,15.21
2023-03-22T09:29:39.577Z,15.21
2023-03-22T09:30:44.893Z,15.20
2023-03-22T09:31:48.931Z,15.19
2023-03-22T09:32:53.121Z,15.18
2023-03-22T09:33:55.240Z,15.16
2023-03-22T09:34:57.758Z,15.16
2023-03-22T09:35:59.596Z,15.12
2023-03-22T09:37:04.056Z,15.12
2023-03-22T09:38:06.497Z,15.10
2023-03-22T09:39:10.023Z,15.09
2023-03-22T09:40:12.744Z,15.08
2023-03-22T09:41:22.026Z,15.07
2023-03-22T09:42:32.172Z,15.06
2023-03-22T09:43:37.832Z,15.02
2023-03-22T09:44:43.991Z,14.99
2023-03-22T09:45:54.240Z,14.98
2023-03-22T09:46:59.945Z,15.01
2023-03-22T09:48:06.976Z,15.05
2023-03-22T09:49:15.037Z,15.09
2023-03-22T09:50:21.816Z,15.16
2023-03-22T09:51:37.519Z,15.22
2023-03-22T09:52:40.709Z,15.26
2023-03-22T09:53:42.286Z,15.30
2023-03-22T09:54:47.562Z,15.34
2023-03-22T09:55:56.854Z,15.38
2023-03-22T09:57:06.783Z,15.41
2023-03-22T09:58:21.869Z,15.46
2023-03-22T09:59:32.548Z,15.55
2023-03-22T10:00:43.275Z,15.60
2023-03-22T10:01:52.522Z,15.66
2023-03-22T10:03:01.586Z,15.71
2023-03-22T10:04:26.140Z,15.74
2023-03-22T10:05:35.420Z,15.78
2023-03-22T10:06:38.482Z,15.81
2023-03-22T10:07:52.401Z,15.84
2023-03-22T10:09:06.107Z,15.86
2023-03-22T10:10:12.822Z,15.88
2023-03-22T10:11:23.927Z,15.91
2023-03-22T10:12:31.339Z,15.92
2023-03-22T10:13:41.940Z,15.95
2023-03-22T10:14:51.579Z,15.92
2023-03-22T10:16:08.310Z,15.92
2023-03-22T10:17:16.686Z,15.94
2023-03-22T10:18:23.246Z,15.97
2023-03-22T10:19:31.813Z,16.02
2023-03-22T10:20:41.262Z,16.04
2023-03-22T10:21:47.654Z,16.03
2023-03-22T10:22:53.957Z,16.05
2023-03-22T10:24:02.084Z,16.07
2023-03-22T10:25:11.173Z,16.09
2023-03-22T10:26:21.405Z,16.13
2023-03-22T10:27:31.014Z,16.16
2023-03-22T10:28:40.266Z,16.21
2023-03-22T10:29:47.913Z,16.24
2023-03-22T10:30:57.384Z,16.28
2023-03-22T10:32:13.653Z,16.30
2023-03-22T10:33:24.691Z,16.28
2023-03-22T10:34:31.184Z,16.25
2023-03-22T10:35:36.277Z,16.23
2023-03-22T10:36:47.421Z,16.20
2023-03-22T10:37:54.227Z,16.16
2023-03-22T10:39:04.245Z,16.14
2023-03-22T10:40:15.003Z,16.12
2023-03-22T10:41:25.060Z,16.08
2023-03-22T10:42:42.065Z,16.03
2023-03-22T10:43:47.263Z,16.01
2023-03-22T10:44:53.099Z,15.99
2023-03-22T10:45:57.020Z,15.97
2023-03-22T10:47:07.831Z,15.96
2023-03-22T10:48:18.025Z,15.92
2023-03-22T10:49:27.642Z,15.89
2023-03-22T10:50:33.469Z,15.86
2023-03-22T10:51:40.341Z,15.88
2023-03-22T10:52:50.715Z,15.88
2023-03-22T10:53:54.825Z,15.89
2023-03-22T10:55:02.285Z,15.91
2023-03-22T10:56:18.706Z,15.91
2023-03-22T10:57:20.304Z,15.90
2023-03-22T10:58:31.139Z,15.89
2023-03-22T10:59:44.585Z,15.89
2023-03-22T11:00:49.130Z,15.88
2023-03-22T11:01:55.573Z,15.88
2023-03-22T11:03:00.086Z,15.88
2023-03-22T11:04:09.549Z,15.86
2023-03-22T11:05:20.699Z,15.85
2023-03-22T11:06:26.294Z,15.85
2023-03-22T11:07:31.990Z,15.86
2023-03-22T11:08:46.761Z,15.85
2023-03-22T11:09:48.343Z,15.85
2023-03-22T11:10:52.019Z,15.86
2023-03-22T11:11:57.484Z,15.87
2023-03-22T11:13:18.225Z,15.87
2023-03-22T11:14:27.604Z,15.87
2023-03-22T11:15:32.673Z,15.88
2023-03-22T11:16:48.304Z,15.86
2023-03-22T11:17:50.170Z,15.85
2023-03-22T11:18:53.891Z,15.85
2023-03-22T11:19:59.443Z,15.83
2023-03-22T11:21:07.292Z,15.84
2023-03-22T11:22:24.514Z,15.85
2023-03-22T11:23:28.467Z,15.82
2023-03-22T11:24:33.039Z,15.78
2023-03-22T11:25:38.170Z,15.77
2023-03-22T11:26:41.883Z,15.71
2023-03-22T11:27:51.071Z,15.67
2023-03-22T11:29:03.166Z,15.66
2023-03-22T11:30:20.978Z,15.65
2023-03-22T11:31:50.073Z,15.62
2023-03-22T11:33:02.023Z,15.62
2023-03-22T11:34:04.681Z,15.60
2023-03-22T11:35:14.676Z,15.60
2023-03-22T11:36:18.473Z,15.59
2023-03-22T11:37:22.956Z,15.60
2023-03-22T11:38:29.618Z,15.61
2023-03-22T11:39:32.584Z,15.62
2023-03-22T11:40:36.059Z,15.63
2023-03-22T11:41:41.292Z,15.66
2023-03-22T11:42:43.131Z,15.69
2023-03-22T11:43:49.723Z,15.73
2023-03-22T11:44:52.871Z,15.75
2023-03-22T11:45:58.745Z,15.80
2023-03-22T11:47:02.643Z,15.83
2023-03-22T11:48:18.726Z,15.86
2023-03-22T11:49:26.885Z,15.87
2023-03-22T11:50:31.976Z,15.86
2023-03-22T11:51:36.944Z,15.86
2023-03-22T11:52:39.642Z,15.84
2023-03-22T11:53:43.915Z,15.83
2023-03-22T11:54:47.274Z,15.84
2023-03-22T11:55:51.317Z,15.85
2023-03-22T11:56:57.882Z,15.87
2023-03-22T11:58:00.541Z,15.88
2023-03-22T11:59:07.256Z,15.86
2023-03-22T12:00:19.953Z,15.85
2023-03-22T12:01:41.718Z,15.81
2023-03-22T12:02:49.650Z,15.82
2023-03-22T12:04:04.838Z,15.84
2023-03-22T12:05:13.023Z,15.86
2023-03-22T12:06:28.555Z,15.91
2023-03-22T12:07:33.906Z,15.93
2023-03-22T12:08:43.880Z,15.99
2023-03-22T12:09:53.320Z,16.02
2023-03-22T12:11:02.610Z,16.05
2023-03-22T12:12:10.833Z,16.07
2023-03-22T12:13:17.256Z,16.11
2023-03-22T12:14:24.553Z,16.10
2023-03-22T12:15:30.303Z,16.13
2023-03-22T12:16:41.060Z,16.15
2023-03-22T12:17:54.891Z,16.19
2023-03-22T12:19:06.950Z,16.20
2023-03-22T12:20:19.345Z,16.19
2023-03-22T12:21:21.111Z,16.16
2023-03-22T12:22:30.725Z,16.14
2023-03-22T12:23:35.868Z,16.13
2023-03-22T12:24:37.951Z,16.13
2023-03-22T12:25:43.192Z,16.12
2023-03-22T12:26:45.689Z,16.12
2023-03-22T12:27:52.557Z,16.11
2023-03-22T12:29:08.148Z,16.09
2023-03-22T12:30:17.195Z,16.05
2023-03-22T12:31:22.619Z,16.00
2023-03-22T12:32:30.376Z,15.99
2023-03-22T12:33:38.307Z,15.97
2023-03-22T12:34:44.772Z,15.97
2023-03-22T12:35:49.595Z,15.96
2023-03-22T12:36:54.702Z,15.93
2023-03-22T12:38:00.559Z,15.91
2023-03-22T12:39:05.093Z,15.87
2023-03-22T12:40:16.680Z,15.86
2023-03-22T12:41:27.326Z,15.82
2023-03-22T12:42:35.029Z,15.78
2023-03-22T12:43:47.838Z,15.72
2023-03-22T12:45:02.535Z,15.70
2023-03-22T12:46:11.127Z,15.66
2023-03-22T12:47:29.598Z,15.65
2023-03-22T12:48:36.959Z,15.63
2023-03-22T12:49:44.455Z,15.62
2023-03-22T12:50:51.230Z,15.58
2023-03-22T12:51:56.519Z,15.57
2023-03-22T12:52:59.353Z,15.56
2023-03-22T12:54:02.149Z,15.56
2023-03-22T12:55:06.480Z,15.53
2023-03-22T12:56:11.959Z,15.51
2023-03-22T12:57:16.611Z,15.49
2023-03-22T12:58:22.245Z,15.49
2023-03-22T12:59:28.657Z,15.48
2023-03-22T13:00:39.407Z,15.48
2023-03-22T13:01:58.407Z,15.48
2023-03-22T13:03:10.716Z,15.47
2023-03-22T13:04:31.192Z,15.49
2023-03-22T13:05:36.154Z,15.49
2023-03-22T13:06:57.449Z,15.53
2023-03-22T13:08:10.239Z,15.55
2023-03-22T13:09:16.925Z,15.57
2023-03-22T13:11:09.921Z,15.58
2023-03-22T13:12:31.614Z,15.57
2023-03-22T13:13:41.728Z,15.58
2023-03-22T13:15:01.062Z,15.59
2023-03-22T13:16:15.179Z,15.60
2023-03-22T13:17:36.418Z,15.61
2023-03-22T13:19:17.421Z,15.61
2023-03-22T13:20:28.109Z,15.60
2023-03-22T13:21:33.298Z,15.58
2023-03-22T13:23:02.124Z,15.58
2023-03-22T13:24:22.521Z,15.58
2023-03-22T13:25:36.131Z,15.60
2023-03-22T13:26:45.456Z,15.61
2023-03-22T13:27:53.865Z,15.61
2023-03-22T13:28:59.123Z,15.62
2023-03-22T13:30:16.884Z,15.60
2023-03-22T13:31:34.401Z,15.60
2023-03-22T13:32:37.457Z,15.61
2023-03-22T13:33:40.126Z,15.61
2023-03-22T13:34:46.799Z,15.61
2023-03-22T13:35:53.812Z,15.61
2023-03-22T13:36:57.792Z,15.61
2023-03-22T13:38:02.880Z,15.62
2023-03-22T13:39:12.330Z,15.62
2023-03-22T13:40:22.894Z,15.64
2023-03-22T13:41:29.273Z,15.63
2023-03-22T13:42:37.247Z,15.63
2023-03-22T13:43:47.542Z,15.64
2023-03-22T13:44:57.078Z,15.66
2023-03-22T13:46:08.097Z,15.66
2023-03-22T13:47:32.237Z,15.67
2023-03-22T13:48:43.799Z,15.69
2023-03-22T13:49:54.133Z,15.70
2023-03-22T13:50:58.166Z,15.70
2023-03-22T13:52:02.990Z,15.71
2023-03-22T13:53:08.536Z,15.73
2023-03-22T13:54:20.046Z,15.72
2023-03-22T13:56:03.475Z,15.73
2023-03-22T13:57:17.382Z,15.70
2023-03-22T13:58:36.137Z,15.69
2023-03-22T14:00:11.224Z,15.69
2023-03-22T14:01:23.096Z,15.66
2023-03-22T14:02:28.320Z,15.66
2023-03-22T14:03:35.882Z,15.67
2023-03-22T14:04:43.103Z,15.66
2023-03-22T14:05:48.313Z,15.67
2023-03-22T14:06:55.122Z,15.70
2023-03-22T14:08:00.825Z,15.71
2023-03-22T14:09:10.405Z,15.69
2023-03-22T14:10:16.342Z,15.71
2023-03-22T14:11:24.695Z,15.70
2023-03-22T14:12:32.187Z,15.70
2023-03-22T14:13:40.514Z,15.70
2023-03-22T14:14:49.724Z,15.74
2023-03-22T14:15:54.243Z,15.75
2023-03-22T14:17:04.782Z,15.76
2023-03-22T14:18:14.041Z,15.76
2023-03-22T14:19:20.273Z,15.77
2023-03-22T14:20:24.542Z,15.76
2023-03-22T14:21:34.468Z,15.78
